sensor_id;sensor_type;location;lat;lon;timestamp;temperature;humidity
67870;DHT22;54673;52.262;6.830;2023-05-19T00:01:37;21.30;41.00
67870;DHT22;54673;52.262;6.830;2023-05-19T00:04:03;21.30;40.40
67870;DHT22;54673;52.262;6.830;2023-05-19T00:06:31;21.30;40.40
67870;DHT22;54673;52.262;6.830;2023-05-19T00:08:59;21.30;40.40
67870;DHT22;54673;52.262;6.830;2023-05-19T00:11:26;21.30;40.40
67870;DHT22;54673;52.262;6.830;2023-05-19T00:13:53;21.30;40.40
67870;DHT22;54673;52.262;6.830;2023-05-19T00:16:20;21.30;40.40
67870;DHT22;54673;52.262;6.830;2023-05-19T00:18:46;21.30;40.40
67870;DHT22;54673;52.262;6.830;2023-05-19T00:21:12;21.30;40.50
67870;DHT22;54673;52.262;6.830;2023-05-19T00:23:38;21.30;40.50
67870;DHT22;54673;52.262;6.830;2023-05-19T00:26:03;20.50;40.10
67870;DHT22;54673;52.262;6.830;2023-05-19T00:28:29;21.30;41.40
67870;DHT22;54673;52.262;6.830;2023-05-19T00:30:55;21.30;40.50
67870;DHT22;54673;52.262;6.830;2023-05-19T00:33:20;21.30;40.60
67870;DHT22;54673;52.262;6.830;2023-05-19T00:35:46;21.30;40.50
67870;DHT22;54673;52.262;6.830;2023-05-19T00:38:11;21.30;40.50
67870;DHT22;54673;52.262;6.830;2023-05-19T00:40:37;21.30;40.50
67870;DHT22;54673;52.262;6.830;2023-05-19T00:43:02;21.20;40.50
67870;DHT22;54673;52.262;6.830;2023-05-19T00:45:30;21.20;40.40
67870;DHT22;54673;52.262;6.830;2023-05-19T00:47:55;21.20;40.50
67870;DHT22;54673;52.262;6.830;2023-05-19T00:50:22;21.20;40.40
67870;DHT22;54673;52.262;6.830;2023-05-19T00:52:49;21.20;40.50
67870;DHT22;54673;52.262;6.830;2023-05-19T00:55:14;21.20;40.50
67870;DHT22;54673;52.262;6.830;2023-05-19T00:57:40;21.20;40.40
67870;DHT22;54673;52.262;6.830;2023-05-19T01:00:07;21.20;40.50
67870;DHT22;54673;52.262;6.830;2023-05-19T01:02:33;21.20;40.50
67870;DHT22;54673;52.262;6.830;2023-05-19T01:04:59;21.20;40.50
67870;DHT22;54673;52.262;6.830;2023-05-19T01:07:26;21.20;40.50
67870;DHT22;54673;52.262;6.830;2023-05-19T01:09:52;21.20;40.50
67870;DHT22;54673;52.262;6.830;2023-05-19T01:12:17;21.20;40.50
67870;DHT22;54673;52.262;6.830;2023-05-19T01:14:43;21.20;40.50
67870;DHT22;54673;52.262;6.830;2023-05-19T01:17:18;21.20;40.50
67870;DHT22;54673;52.262;6.830;2023-05-19T01:20:02;21.20;40.50
67870;DHT22;54673;52.262;6.830;2023-05-19T01:22:56;21.20;40.50
67870;DHT22;54673;52.262;6.830;2023-05-19T01:25:55;21.20;40.50
67870;DHT22;54673;52.262;6.830;2023-05-19T01:28:48;21.20;40.50
67870;DHT22;54673;52.262;6.830;2023-05-19T01:31:20;21.10;40.50
67870;DHT22;54673;52.262;6.830;2023-05-19T01:33:48;21.20;40.60
67870;DHT22;54673;52.262;6.830;2023-05-19T01:36:16;21.20;40.50
67870;DHT22;54673;52.262;6.830;2023-05-19T01:38:44;21.20;40.50
67870;DHT22;54673;52.262;6.830;2023-05-19T01:41:11;21.10;40.50
67870;DHT22;54673;52.262;6.830;2023-05-19T01:43:37;21.10;40.50
67870;DHT22;54673;52.262;6.830;2023-05-19T01:46:04;21.10;40.50
67870;DHT22;54673;52.262;6.830;2023-05-19T01:48:31;21.10;40.50
67870;DHT22;54673;52.262;6.830;2023-05-19T01:50:57;21.10;40.50
67870;DHT22;54673;52.262;6.830;2023-05-19T01:53:23;21.10;40.50
67870;DHT22;54673;52.262;6.830;2023-05-19T01:55:52;21.10;40.50
67870;DHT22;54673;52.262;6.830;2023-05-19T01:58:32;21.10;40.50
67870;DHT22;54673;52.262;6.830;2023-05-19T02:07:57;21.10;40.50
67870;DHT22;54673;52.262;6.830;2023-05-19T02:10:09;21.10;40.50
67870;DHT22;54673;52.262;6.830;2023-05-19T02:12:37;21.10;40.50
67870;DHT22;54673;52.262;6.830;2023-05-19T02:17:39;21.10;40.50
67870;DHT22;54673;52.262;6.830;2023-05-19T02:20:12;21.10;40.50
67870;DHT22;54673;52.262;6.830;2023-05-19T02:22:38;21.10;40.50
67870;DHT22;54673;52.262;6.830;2023-05-19T02:25:03;21.10;40.50
67870;DHT22;54673;52.262;6.830;2023-05-19T02:27:29;21.10;40.50
67870;DHT22;54673;52.262;6.830;2023-05-19T02:29:55;21.10;40.60
67870;DHT22;54673;52.262;6.830;2023-05-19T02:32:21;21.10;40.60
67870;DHT22;54673;52.262;6.830;2023-05-19T02:34:46;21.10;40.60
67870;DHT22;54673;52.262;6.830;2023-05-19T02:37:13;21.10;40.50
67870;DHT22;54673;52.262;6.830;2023-05-19T02:39:40;21.00;40.50
67870;DHT22;54673;52.262;6.830;2023-05-19T02:42:06;21.10;40.50
67870;DHT22;54673;52.262;6.830;2023-05-19T02:44:31;21.10;40.60
67870;DHT22;54673;52.262;6.830;2023-05-19T02:46:57;21.00;40.50
67870;DHT22;54673;52.262;6.830;2023-05-19T02:49:23;21.10;40.60
67870;DHT22;54673;52.262;6.830;2023-05-19T02:51:48;21.10;40.50
67870;DHT22;54673;52.262;6.830;2023-05-19T02:54:14;21.10;40.50
67870;DHT22;54673;52.262;6.830;2023-05-19T02:56:39;21.10;40.50
67870;DHT22;54673;52.262;6.830;2023-05-19T02:59:05;20.70;40.30
67870;DHT22;54673;52.262;6.830;2023-05-19T03:01:30;21.00;40.60
67870;DHT22;54673;52.262;6.830;2023-05-19T03:03:57;21.00;40.50
67870;DHT22;54673;52.262;6.830;2023-05-19T03:06:22;21.10;40.50
67870;DHT22;54673;52.262;6.830;2023-05-19T03:08:49;21.00;40.40
67870;DHT22;54673;52.262;6.830;2023-05-19T03:11:15;20.90;40.40
67870;DHT22;54673;52.262;6.830;2023-05-19T03:13:41;21.00;40.50
67870;DHT22;54673;52.262;6.830;2023-05-19T03:16:06;21.00;40.40
67870;DHT22;54673;52.262;6.830;2023-05-19T03:18:33;21.00;40.50
67870;DHT22;54673;52.262;6.830;2023-05-19T03:20:58;21.00;40.50
67870;DHT22;54673;52.262;6.830;2023-05-19T03:23:24;21.00;40.50
67870;DHT22;54673;52.262;6.830;2023-05-19T03:25:50;21.00;40.50
67870;DHT22;54673;52.262;6.830;2023-05-19T03:28:18;21.00;40.50
67870;DHT22;54673;52.262;6.830;2023-05-19T03:30:44;21.00;40.50
67870;DHT22;54673;52.262;6.830;2023-05-19T03:33:09;21.00;40.50
67870;DHT22;54673;52.262;6.830;2023-05-19T03:35:35;20.90;40.50
67870;DHT22;54673;52.262;6.830;2023-05-19T03:38:01;20.90;40.50
67870;DHT22;54673;52.262;6.830;2023-05-19T03:40:26;20.90;40.50
67870;DHT22;54673;52.262;6.830;2023-05-19T03:42:52;20.90;40.60
67870;DHT22;54673;52.262;6.830;2023-05-19T03:45:18;20.90;40.50
67870;DHT22;54673;52.262;6.830;2023-05-19T03:47:44;20.90;40.40
67870;DHT22;54673;52.262;6.830;2023-05-19T03:50:11;20.90;40.50
67870;DHT22;54673;52.262;6.830;2023-05-19T03:52:37;20.90;40.50
67870;DHT22;54673;52.262;6.830;2023-05-19T03:55:04;20.90;40.40
67870;DHT22;54673;52.262;6.830;2023-05-19T03:57:30;20.90;40.40
67870;DHT22;54673;52.262;6.830;2023-05-19T03:59:55;20.80;40.40
67870;DHT22;54673;52.262;6.830;2023-05-19T04:02:21;20.80;40.40
67870;DHT22;54673;52.262;6.830;2023-05-19T04:04:46;20.80;40.40
67870;DHT22;54673;52.262;6.830;2023-05-19T04:07:12;20.80;40.40
67870;DHT22;54673;52.262;6.830;2023-05-19T04:09:37;20.80;40.30
67870;DHT22;54673;52.262;6.830;2023-05-19T04:12:03;20.80;40.40
67870;DHT22;54673;52.262;6.830;2023-05-19T04:14:29;20.80;40.30
67870;DHT22;54673;52.262;6.830;2023-05-19T04:16:55;20.80;40.50
67870;DHT22;54673;52.262;6.830;2023-05-19T04:19:20;20.80;40.30
67870;DHT22;54673;52.262;6.830;2023-05-19T04:21:46;20.80;40.40
67870;DHT22;54673;52.262;6.830;2023-05-19T04:24:11;20.80;40.40
67870;DHT22;54673;52.262;6.830;2023-05-19T04:26:37;20.80;40.30
67870;DHT22;54673;52.262;6.830;2023-05-19T04:29:06;20.80;40.30
67870;DHT22;54673;52.262;6.830;2023-05-19T04:31:33;20.80;40.30
67870;DHT22;54673;52.262;6.830;2023-05-19T04:34:00;20.70;40.20
67870;DHT22;54673;52.262;6.830;2023-05-19T04:36:26;20.70;40.20
67870;DHT22;54673;52.262;6.830;2023-05-19T04:38:52;20.70;40.20
67870;DHT22;54673;52.262;6.830;2023-05-19T04:41:19;20.70;40.20
67870;DHT22;54673;52.262;6.830;2023-05-19T04:43:45;20.70;40.30
67870;DHT22;54673;52.262;6.830;2023-05-19T04:46:12;20.70;41.10
67870;DHT22;54673;52.262;6.830;2023-05-19T04:48:38;20.70;41.20
67870;DHT22;54673;52.262;6.830;2023-05-19T04:51:05;20.70;40.30
67870;DHT22;54673;52.262;6.830;2023-05-19T04:53:31;20.70;40.30
67870;DHT22;54673;52.262;6.830;2023-05-19T04:55:57;20.70;40.30
67870;DHT22;54673;52.262;6.830;2023-05-19T04:58:25;20.70;40.30
67870;DHT22;54673;52.262;6.830;2023-05-19T05:00:52;20.70;40.40
67870;DHT22;54673;52.262;6.830;2023-05-19T05:03:20;20.70;40.40
67870;DHT22;54673;52.262;6.830;2023-05-19T05:05:48;20.70;40.30
67870;DHT22;54673;52.262;6.830;2023-05-19T05:08:14;20.70;40.30
67870;DHT22;54673;52.262;6.830;2023-05-19T05:10:46;20.70;40.40
67870;DHT22;54673;52.262;6.830;2023-05-19T05:13:12;20.70;40.40
67870;DHT22;54673;52.262;6.830;2023-05-19T05:15:38;20.70;40.40
67870;DHT22;54673;52.262;6.830;2023-05-19T05:18:03;20.70;40.40
67870;DHT22;54673;52.262;6.830;2023-05-19T05:20:29;20.70;40.40
67870;DHT22;54673;52.262;6.830;2023-05-19T05:22:55;20.70;40.40
67870;DHT22;54673;52.262;6.830;2023-05-19T05:25:22;20.60;40.40
67870;DHT22;54673;52.262;6.830;2023-05-19T05:27:48;20.70;40.50
67870;DHT22;54673;52.262;6.830;2023-05-19T05:30:13;20.60;40.40
67870;DHT22;54673;52.262;6.830;2023-05-19T05:32:39;20.70;40.40
67870;DHT22;54673;52.262;6.830;2023-05-19T05:35:05;20.60;40.50
67870;DHT22;54673;52.262;6.830;2023-05-19T05:37:30;20.90;40.50
67870;DHT22;54673;52.262;6.830;2023-05-19T05:39:56;20.60;40.40
67870;DHT22;54673;52.262;6.830;2023-05-19T05:42:21;20.60;40.50
67870;DHT22;54673;52.262;6.830;2023-05-19T05:44:47;20.60;40.50
67870;DHT22;54673;52.262;6.830;2023-05-19T05:47:13;20.70;40.50
67870;DHT22;54673;52.262;6.830;2023-05-19T05:49:39;20.60;40.70
67870;DHT22;54673;52.262;6.830;2023-05-19T05:52:09;20.60;40.50
67870;DHT22;54673;52.262;6.830;2023-05-19T05:54:35;20.60;40.50
67870;DHT22;54673;52.262;6.830;2023-05-19T05:57:01;20.60;40.50
67870;DHT22;54673;52.262;6.830;2023-05-19T05:59:27;20.60;40.50
67870;DHT22;54673;52.262;6.830;2023-05-19T06:01:53;20.70;40.50
67870;DHT22;54673;52.262;6.830;2023-05-19T06:04:18;20.60;40.60
67870;DHT22;54673;52.262;6.830;2023-05-19T06:06:45;20.60;40.50
67870;DHT22;54673;52.262;6.830;2023-05-19T06:09:10;20.70;40.50
67870;DHT22;54673;52.262;6.830;2023-05-19T06:11:36;20.60;40.50
67870;DHT22;54673;52.262;6.830;2023-05-19T06:14:02;20.60;40.60
67870;DHT22;54673;52.262;6.830;2023-05-19T06:16:28;20.60;40.50
67870;DHT22;54673;52.262;6.830;2023-05-19T06:18:54;20.60;40.60
67870;DHT22;54673;52.262;6.830;2023-05-19T06:21:19;20.60;40.60
67870;DHT22;54673;52.262;6.830;2023-05-19T06:23:46;20.60;40.60
67870;DHT22;54673;52.262;6.830;2023-05-19T06:26:11;20.60;40.60
67870;DHT22;54673;52.262;6.830;2023-05-19T06:28:37;20.60;40.60
67870;DHT22;54673;52.262;6.830;2023-05-19T06:31:02;20.60;40.60
67870;DHT22;54673;52.262;6.830;2023-05-19T06:33:28;20.60;40.70
67870;DHT22;54673;52.262;6.830;2023-05-19T06:35:54;20.60;40.80
67870;DHT22;54673;52.262;6.830;2023-05-19T06:38:19;20.60;40.80
67870;DHT22;54673;52.262;6.830;2023-05-19T06:40:45;20.60;40.70
67870;DHT22;54673;52.262;6.830;2023-05-19T06:43:10;20.60;40.80
67870;DHT22;54673;52.262;6.830;2023-05-19T06:45:36;20.60;40.80
67870;DHT22;54673;52.262;6.830;2023-05-19T06:48:02;20.60;40.80
67870;DHT22;54673;52.262;6.830;2023-05-19T06:50:27;20.60;40.80
67870;DHT22;54673;52.262;6.830;2023-05-19T06:52:53;20.60;40.80
67870;DHT22;54673;52.262;6.830;2023-05-19T06:55:18;20.60;40.80
67870;DHT22;54673;52.262;6.830;2023-05-19T06:57:44;20.60;40.80
67870;DHT22;54673;52.262;6.830;2023-05-19T07:00:10;20.60;40.90
67870;DHT22;54673;52.262;6.830;2023-05-19T07:02:37;20.60;40.80
67870;DHT22;54673;52.262;6.830;2023-05-19T07:05:03;20.60;41.70
67870;DHT22;54673;52.262;6.830;2023-05-19T07:07:29;20.60;40.80
67870;DHT22;54673;52.262;6.830;2023-05-19T07:09:54;20.60;40.80
67870;DHT22;54673;52.262;6.830;2023-05-19T07:12:20;20.60;41.70
67870;DHT22;54673;52.262;6.830;2023-05-19T07:14:45;20.60;40.90
67870;DHT22;54673;52.262;6.830;2023-05-19T07:17:12;20.60;40.80
67870;DHT22;54673;52.262;6.830;2023-05-19T07:19:37;20.70;41.00
67870;DHT22;54673;52.262;6.830;2023-05-19T07:22:03;20.60;40.90
67870;DHT22;54673;52.262;6.830;2023-05-19T07:24:28;20.60;40.80
67870;DHT22;54673;52.262;6.830;2023-05-19T07:26:55;20.70;40.90
67870;DHT22;54673;52.262;6.830;2023-05-19T07:29:21;20.70;41.00
67870;DHT22;54673;52.262;6.830;2023-05-19T07:31:46;20.70;40.90
67870;DHT22;54673;52.262;6.830;2023-05-19T07:34:12;20.70;41.00
67870;DHT22;54673;52.262;6.830;2023-05-19T07:36:37;20.70;41.10
67870;DHT22;54673;52.262;6.830;2023-05-19T07:39:03;20.70;41.00
67870;DHT22;54673;52.262;6.830;2023-05-19T07:41:29;20.70;41.00
67870;DHT22;54673;52.262;6.830;2023-05-19T07:43:54;20.70;40.90
67870;DHT22;54673;52.262;6.830;2023-05-19T07:46:20;20.70;40.70
67870;DHT22;54673;52.262;6.830;2023-05-19T07:48:46;20.70;40.70
67870;DHT22;54673;52.262;6.830;2023-05-19T07:51:12;20.70;40.50
67870;DHT22;54673;52.262;6.830;2023-05-19T07:53:38;20.70;40.50
67870;DHT22;54673;52.262;6.830;2023-05-19T07:56:03;20.70;40.10
67870;DHT22;54673;52.262;6.830;2023-05-19T07:58:29;20.70;40.10
67870;DHT22;54673;52.262;6.830;2023-05-19T08:00:58;20.60;39.90
67870;DHT22;54673;52.262;6.830;2023-05-19T08:03:24;20.60;39.90
67870;DHT22;54673;52.262;6.830;2023-05-19T08:05:50;20.60;39.90
67870;DHT22;54673;52.262;6.830;2023-05-19T08:08:16;20.60;39.70
67870;DHT22;54673;52.262;6.830;2023-05-19T08:10:44;20.60;39.80
67870;DHT22;54673;52.262;6.830;2023-05-19T08:13:09;20.60;39.80
67870;DHT22;54673;52.262;6.830;2023-05-19T08:15:35;20.60;39.90
67870;DHT22;54673;52.262;6.830;2023-05-19T08:18:01;20.70;39.90
67870;DHT22;54673;52.262;6.830;2023-05-19T08:20:27;20.70;40.00
67870;DHT22;54673;52.262;6.830;2023-05-19T08:22:53;20.70;40.00
67870;DHT22;54673;52.262;6.830;2023-05-19T08:25:18;20.70;40.00
67870;DHT22;54673;52.262;6.830;2023-05-19T08:27:44;20.70;40.10
67870;DHT22;54673;52.262;6.830;2023-05-19T08:30:10;20.60;40.00
67870;DHT22;54673;52.262;6.830;2023-05-19T08:32:36;20.70;39.80
67870;DHT22;54673;52.262;6.830;2023-05-19T08:35:02;20.70;39.80
67870;DHT22;54673;52.262;6.830;2023-05-19T08:37:28;20.70;39.80
67870;DHT22;54673;52.262;6.830;2023-05-19T08:39:54;20.70;39.80
67870;DHT22;54673;52.262;6.830;2023-05-19T08:42:19;20.70;39.80
67870;DHT22;54673;52.262;6.830;2023-05-19T08:44:45;20.70;39.80
67870;DHT22;54673;52.262;6.830;2023-05-19T08:47:11;20.70;39.60
67870;DHT22;54673;52.262;6.830;2023-05-19T08:49:45;20.70;39.50
67870;DHT22;54673;52.262;6.830;2023-05-19T08:54:45;20.80;39.50
67870;DHT22;54673;52.262;6.830;2023-05-19T08:57:13;20.80;39.50
67870;DHT22;54673;52.262;6.830;2023-05-19T08:59:40;20.80;39.50
67870;DHT22;54673;52.262;6.830;2023-05-19T09:02:07;20.80;39.40
67870;DHT22;54673;52.262;6.830;2023-05-19T09:04:35;20.80;39.10
67870;DHT22;54673;52.262;6.830;2023-05-19T09:07:02;20.80;39.00
67870;DHT22;54673;52.262;6.830;2023-05-19T09:09:28;20.80;38.80
67870;DHT22;54673;52.262;6.830;2023-05-19T09:11:54;20.80;38.80
67870;DHT22;54673;52.262;6.830;2023-05-19T09:14:20;20.80;38.90
67870;DHT22;54673;52.262;6.830;2023-05-19T09:16:46;20.80;38.80
67870;DHT22;54673;52.262;6.830;2023-05-19T09:19:15;20.80;38.80
67870;DHT22;54673;52.262;6.830;2023-05-19T09:21:41;20.80;38.70
67870;DHT22;54673;52.262;6.830;2023-05-19T09:24:08;20.90;38.80
67870;DHT22;54673;52.262;6.830;2023-05-19T09:26:41;20.90;38.90
67870;DHT22;54673;52.262;6.830;2023-05-19T09:29:11;20.90;38.80
67870;DHT22;54673;52.262;6.830;2023-05-19T09:31:37;20.90;38.80
67870;DHT22;54673;52.262;6.830;2023-05-19T09:34:02;20.90;38.90
67870;DHT22;54673;52.262;6.830;2023-05-19T09:36:28;20.90;38.90
67870;DHT22;54673;52.262;6.830;2023-05-19T09:38:55;21.00;38.90
67870;DHT22;54673;52.262;6.830;2023-05-19T09:41:20;20.90;38.90
67870;DHT22;54673;52.262;6.830;2023-05-19T09:43:53;21.00;38.90
67870;DHT22;54673;52.262;6.830;2023-05-19T09:46:23;21.00;39.00
67870;DHT22;54673;52.262;6.830;2023-05-19T09:48:56;21.00;39.00
67870;DHT22;54673;52.262;6.830;2023-05-19T09:51:22;21.00;39.00
67870;DHT22;54673;52.262;6.830;2023-05-19T09:53:48;21.00;39.00
67870;DHT22;54673;52.262;6.830;2023-05-19T09:56:14;21.00;39.00
67870;DHT22;54673;52.262;6.830;2023-05-19T09:58:43;21.00;38.90
67870;DHT22;54673;52.262;6.830;2023-05-19T10:01:10;21.00;38.90
67870;DHT22;54673;52.262;6.830;2023-05-19T10:03:36;21.00;38.80
67870;DHT22;54673;52.262;6.830;2023-05-19T10:06:03;21.00;38.60
67870;DHT22;54673;52.262;6.830;2023-05-19T10:08:30;21.00;38.40
67870;DHT22;54673;52.262;6.830;2023-05-19T10:10:56;21.00;38.50
67870;DHT22;54673;52.262;6.830;2023-05-19T10:13:23;21.00;38.40
67870;DHT22;54673;52.262;6.830;2023-05-19T10:15:49;21.00;38.30
67870;DHT22;54673;52.262;6.830;2023-05-19T10:18:16;21.00;38.20
67870;DHT22;54673;52.262;6.830;2023-05-19T10:20:43;21.00;38.10
67870;DHT22;54673;52.262;6.830;2023-05-19T10:23:08;21.00;38.10
67870;DHT22;54673;52.262;6.830;2023-05-19T10:25:34;21.00;38.10
67870;DHT22;54673;52.262;6.830;2023-05-19T10:28:07;21.00;38.10
67870;DHT22;54673;52.262;6.830;2023-05-19T10:30:43;21.00;38.20
67870;DHT22;54673;52.262;6.830;2023-05-19T10:33:14;20.90;38.10
67870;DHT22;54673;52.262;6.830;2023-05-19T10:38:41;21.00;37.90
67870;DHT22;54673;52.262;6.830;2023-05-19T10:47:23;21.00;37.50
67870;DHT22;54673;52.262;6.830;2023-05-19T10:49:52;21.00;37.40
67870;DHT22;54673;52.262;6.830;2023-05-19T10:52:22;21.00;37.40
67870;DHT22;54673;52.262;6.830;2023-05-19T10:54:50;21.00;37.40
67870;DHT22;54673;52.262;6.830;2023-05-19T10:57:23;20.90;37.40
67870;DHT22;54673;52.262;6.830;2023-05-19T10:59:50;21.00;37.40
67870;DHT22;54673;52.262;6.830;2023-05-19T11:02:36;21.00;37.30
67870;DHT22;54673;52.262;6.830;2023-05-19T11:05:07;21.00;37.50
67870;DHT22;54673;52.262;6.830;2023-05-19T11:07:34;21.00;37.40
67870;DHT22;54673;52.262;6.830;2023-05-19T11:10:04;20.90;37.10
67870;DHT22;54673;52.262;6.830;2023-05-19T11:12:42;20.90;36.90
67870;DHT22;54673;52.262;6.830;2023-05-19T11:15:11;21.00;36.80
67870;DHT22;54673;52.262;6.830;2023-05-19T11:17:39;21.00;36.70
67870;DHT22;54673;52.262;6.830;2023-05-19T11:20:07;20.90;36.60
67870;DHT22;54673;52.262;6.830;2023-05-19T11:22:33;20.90;36.60
67870;DHT22;54673;52.262;6.830;2023-05-19T11:25:00;20.90;36.70
67870;DHT22;54673;52.262;6.830;2023-05-19T11:27:30;20.90;36.70
67870;DHT22;54673;52.262;6.830;2023-05-19T11:30:08;20.90;36.60
67870;DHT22;54673;52.262;6.830;2023-05-19T11:32:36;21.00;36.50
67870;DHT22;54673;52.262;6.830;2023-05-19T11:35:06;21.00;36.50
67870;DHT22;54673;52.262;6.830;2023-05-19T11:37:33;20.90;36.40
67870;DHT22;54673;52.262;6.830;2023-05-19T11:40:06;20.90;36.30
67870;DHT22;54673;52.262;6.830;2023-05-19T11:42:32;20.90;36.10
67870;DHT22;54673;52.262;6.830;2023-05-19T11:45:02;20.90;36.00
67870;DHT22;54673;52.262;6.830;2023-05-19T11:47:30;20.90;36.10
67870;DHT22;54673;52.262;6.830;2023-05-19T11:49:57;20.90;36.10
67870;DHT22;54673;52.262;6.830;2023-05-19T11:52:23;20.90;36.20
67870;DHT22;54673;52.262;6.830;2023-05-19T11:54:49;20.90;36.40
67870;DHT22;54673;52.262;6.830;2023-05-19T11:57:15;20.90;36.50
67870;DHT22;54673;52.262;6.830;2023-05-19T11:59:41;20.80;37.20
67870;DHT22;54673;52.262;6.830;2023-05-19T12:02:23;20.90;36.40
67870;DHT22;54673;52.262;6.830;2023-05-19T12:04:53;20.90;36.40
67870;DHT22;54673;52.262;6.830;2023-05-19T12:07:20;20.90;36.40
67870;DHT22;54673;52.262;6.830;2023-05-19T12:09:48;20.90;36.40
67870;DHT22;54673;52.262;6.830;2023-05-19T12:12:19;20.90;36.40
67870;DHT22;54673;52.262;6.830;2023-05-19T12:14:46;20.90;36.30
67870;DHT22;54673;52.262;6.830;2023-05-19T12:17:13;20.90;36.40
67870;DHT22;54673;52.262;6.830;2023-05-19T12:19:40;20.80;36.40
67870;DHT22;54673;52.262;6.830;2023-05-19T12:22:07;20.90;36.60
67870;DHT22;54673;52.262;6.830;2023-05-19T12:24:34;20.90;36.60
67870;DHT22;54673;52.262;6.830;2023-05-19T12:27:16;20.90;36.80
67870;DHT22;54673;52.262;6.830;2023-05-19T12:29:48;21.00;36.90
67870;DHT22;54673;52.262;6.830;2023-05-19T12:32:16;20.90;37.00
67870;DHT22;54673;52.262;6.830;2023-05-19T12:34:41;20.90;37.10
67870;DHT22;54673;52.262;6.830;2023-05-19T12:37:09;20.90;38.10
67870;DHT22;54673;52.262;6.830;2023-05-19T12:39:35;21.00;37.20
67870;DHT22;54673;52.262;6.830;2023-05-19T12:42:06;21.00;37.30
67870;DHT22;54673;52.262;6.830;2023-05-19T12:44:36;21.00;37.30
67870;DHT22;54673;52.262;6.830;2023-05-19T12:47:04;21.00;37.40
67870;DHT22;54673;52.262;6.830;2023-05-19T12:49:30;21.00;37.50
67870;DHT22;54673;52.262;6.830;2023-05-19T12:51:55;21.00;37.50
67870;DHT22;54673;52.262;6.830;2023-05-19T12:54:21;21.00;37.70
67870;DHT22;54673;52.262;6.830;2023-05-19T12:56:50;21.00;37.80
67870;DHT22;54673;52.262;6.830;2023-05-19T12:59:25;21.00;37.80
67870;DHT22;54673;52.262;6.830;2023-05-19T13:01:57;21.00;37.80
67870;DHT22;54673;52.262;6.830;2023-05-19T13:04:23;21.00;37.80
67870;DHT22;54673;52.262;6.830;2023-05-19T13:06:49;21.00;37.80
67870;DHT22;54673;52.262;6.830;2023-05-19T13:09:15;21.00;37.80
67870;DHT22;54673;52.262;6.830;2023-05-19T13:11:42;21.00;37.90
67870;DHT22;54673;52.262;6.830;2023-05-19T13:14:10;21.00;37.90
67870;DHT22;54673;52.262;6.830;2023-05-19T13:16:36;21.10;38.10
67870;DHT22;54673;52.262;6.830;2023-05-19T13:19:02;21.00;38.00
67870;DHT22;54673;52.262;6.830;2023-05-19T13:21:27;21.10;38.10
67870;DHT22;54673;52.262;6.830;2023-05-19T13:23:53;21.00;38.10
67870;DHT22;54673;52.262;6.830;2023-05-19T13:26:19;21.00;38.10
67870;DHT22;54673;52.262;6.830;2023-05-19T13:28:45;21.10;38.20
67870;DHT22;54673;52.262;6.830;2023-05-19T13:31:12;21.10;38.30
67870;DHT22;54673;52.262;6.830;2023-05-19T13:33:37;21.10;38.30
67870;DHT22;54673;52.262;6.830;2023-05-19T13:36:03;21.10;38.30
67870;DHT22;54673;52.262;6.830;2023-05-19T13:38:29;21.10;38.30
67870;DHT22;54673;52.262;6.830;2023-05-19T13:40:55;21.10;38.30
67870;DHT22;54673;52.262;6.830;2023-05-19T13:43:20;21.10;38.30
67870;DHT22;54673;52.262;6.830;2023-05-19T13:45:46;21.10;38.30
67870;DHT22;54673;52.262;6.830;2023-05-19T13:48:11;21.10;38.30
67870;DHT22;54673;52.262;6.830;2023-05-19T13:50:37;21.10;38.30
67870;DHT22;54673;52.262;6.830;2023-05-19T13:53:02;21.10;38.30
67870;DHT22;54673;52.262;6.830;2023-05-19T13:55:28;21.10;38.30
67870;DHT22;54673;52.262;6.830;2023-05-19T13:57:54;21.10;38.30
67870;DHT22;54673;52.262;6.830;2023-05-19T14:00:19;21.20;38.50
67870;DHT22;54673;52.262;6.830;2023-05-19T14:02:45;21.20;38.50
67870;DHT22;54673;52.262;6.830;2023-05-19T14:05:11;21.20;38.50
67870;DHT22;54673;52.262;6.830;2023-05-19T14:07:36;21.20;38.50
67870;DHT22;54673;52.262;6.830;2023-05-19T14:10:03;21.20;38.50
67870;DHT22;54673;52.262;6.830;2023-05-19T14:12:30;21.20;38.50
67870;DHT22;54673;52.262;6.830;2023-05-19T14:14:55;21.20;38.50
67870;DHT22;54673;52.262;6.830;2023-05-19T14:17:21;21.20;39.50
67870;DHT22;54673;52.262;6.830;2023-05-19T14:19:46;21.20;38.60
67870;DHT22;54673;52.262;6.830;2023-05-19T14:22:12;21.20;38.50
67870;DHT22;54673;52.262;6.830;2023-05-19T14:24:37;21.30;38.60
67870;DHT22;54673;52.262;6.830;2023-05-19T14:27:03;21.30;38.50
67870;DHT22;54673;52.262;6.830;2023-05-19T14:29:29;21.30;38.00
67870;DHT22;54673;52.262;6.830;2023-05-19T14:31:55;21.30;38.20
67870;DHT22;54673;52.262;6.830;2023-05-19T14:34:21;21.30;38.00
67870;DHT22;54673;52.262;6.830;2023-05-19T14:36:47;21.30;38.20
67870;DHT22;54673;52.262;6.830;2023-05-19T14:39:13;21.40;38.40
67870;DHT22;54673;52.262;6.830;2023-05-19T14:41:38;21.50;38.50
67870;DHT22;54673;52.262;6.830;2023-05-19T14:44:04;21.90;38.70
67870;DHT22;54673;52.262;6.830;2023-05-19T14:46:30;21.50;38.60
67870;DHT22;54673;52.262;6.830;2023-05-19T14:48:55;21.60;38.60
67870;DHT22;54673;52.262;6.830;2023-05-19T14:51:21;21.60;38.70
67870;DHT22;54673;52.262;6.830;2023-05-19T14:53:46;21.70;38.80
67870;DHT22;54673;52.262;6.830;2023-05-19T14:56:14;21.70;38.80
67870;DHT22;54673;52.262;6.830;2023-05-19T14:58:40;21.80;38.60
67870;DHT22;54673;52.262;6.830;2023-05-19T15:01:05;21.80;38.40
67870;DHT22;54673;52.262;6.830;2023-05-19T15:03:31;21.90;38.10
67870;DHT22;54673;52.262;6.830;2023-05-19T15:05:56;21.90;37.80
67870;DHT22;54673;52.262;6.830;2023-05-19T15:08:22;21.90;37.50
67870;DHT22;54673;52.262;6.830;2023-05-19T15:10:48;21.90;37.20
67870;DHT22;54673;52.262;6.830;2023-05-19T15:13:14;22.00;37.20
67870;DHT22;54673;52.262;6.830;2023-05-19T15:15:40;22.00;37.00
67870;DHT22;54673;52.262;6.830;2023-05-19T15:18:05;22.10;36.80
67870;DHT22;54673;52.262;6.830;2023-05-19T15:20:31;22.10;36.60
67870;DHT22;54673;52.262;6.830;2023-05-19T15:22:56;22.10;36.40
67870;DHT22;54673;52.262;6.830;2023-05-19T15:25:22;22.00;36.30
67870;DHT22;54673;52.262;6.830;2023-05-19T15:27:48;22.10;36.10
67870;DHT22;54673;52.262;6.830;2023-05-19T15:30:13;22.10;36.00
67870;DHT22;54673;52.262;6.830;2023-05-19T15:32:39;22.20;36.00
67870;DHT22;54673;52.262;6.830;2023-05-19T15:35:05;22.10;35.60
67870;DHT22;54673;52.262;6.830;2023-05-19T15:37:30;22.20;35.80
67870;DHT22;54673;52.262;6.830;2023-05-19T15:39:56;22.20;35.80
67870;DHT22;54673;52.262;6.830;2023-05-19T15:42:21;22.20;35.80
67870;DHT22;54673;52.262;6.830;2023-05-19T15:44:47;22.20;35.80
67870;DHT22;54673;52.262;6.830;2023-05-19T15:47:12;22.20;35.80
67870;DHT22;54673;52.262;6.830;2023-05-19T15:49:38;22.10;35.70